createdAt,value
2019-03-19T00:02:19.613Z,18.80
2019-03-19T00:04:51.499Z,18.70
2019-03-19T00:07:23.973Z,18.70
2019-03-19T00:09:55.867Z,18.80
2019-03-19T00:12:28.158Z,18.70
2019-03-19T00:14:58.527Z,18.70
2019-03-19T00:17:30.915Z,18.70
2019-03-19T00:20:03.119Z,18.70
2019-03-19T00:22:34.575Z,18.70
2019-03-19T00:25:07.562Z,18.70
2019-03-19T00:27:40.245Z,18.80
2019-03-19T00:30:12.883Z,18.70
2019-03-19T00:32:44.071Z,18.70
2019-03-19T00:35:16.794Z,18.70
2019-03-19T00:37:48.416Z,18.70
2019-03-19T00:40:20.930Z,18.70
2019-03-19T00:42:53.874Z,18.70
2019-03-19T00:45:25.386Z,18.70
2019-03-19T00:47:57.985Z,18.70
2019-03-19T00:50:28.139Z,18.70
2019-03-19T00:53:00.584Z,18.70
2019-03-19T00:55:40.184Z,18.70
2019-03-19T00:58:05.022Z,18.70
2019-03-19T01:00:35.357Z,18.70
2019-03-19T01:03:07.954Z,18.70
2019-03-19T01:05:38.600Z,18.70
2019-03-19T01:08:09.289Z,18.70
2019-03-19T01:10:39.593Z,18.70
2019-03-19T01:13:11.880Z,18.70
2019-03-19T01:15:43.710Z,18.70
2019-03-19T01:18:16.331Z,18.70
2019-03-19T01:20:48.442Z,18.70
2019-03-19T01:23:21.367Z,18.70
2019-03-19T01:25:55.538Z,18.70
2019-03-19T01:28:25.854Z,18.70
2019-03-19T01:30:56.116Z,18.70
2019-03-19T01:33:28.434Z,18.70
2019-03-19T01:36:00.242Z,18.70
2019-03-19T01:38:30.939Z,18.70
2019-03-19T01:41:01.312Z,18.70
2019-03-19T01:43:33.910Z,18.70
2019-03-19T01:46:04.211Z,18.70
2019-03-19T01:48:36.494Z,18.70
2019-03-19T01:51:06.794Z,18.60
2019-03-19T01:53:37.554Z,18.70
2019-03-19T01:56:07.860Z,18.60
2019-03-19T01:58:40.487Z,18.60
2019-03-19T02:01:11.062Z,18.60
2019-03-19T02:03:43.666Z,18.60
2019-03-19T02:06:14.049Z,18.60
2019-03-19T02:08:46.513Z,18.60
2019-03-19T02:11:18.480Z,18.60
2019-03-19T02:13:51.314Z,18.60
2019-03-19T02:16:21.702Z,18.60
2019-03-19T02:18:54.215Z,18.60
2019-03-19T02:21:24.514Z,18.60
2019-03-19T02:23:56.752Z,18.60
2019-03-19T02:26:28.950Z,18.60
2019-03-19T02:29:01.244Z,18.60
2019-03-19T02:31:31.625Z,18.60
2019-03-19T02:34:03.844Z,18.60
2019-03-19T02:36:35.983Z,18.60
2019-03-19T02:39:09.022Z,18.60
2019-03-19T02:41:41.047Z,18.60
2019-03-19T02:44:13.642Z,18.60
2019-03-19T02:46:44.245Z,18.60
2019-03-19T02:49:16.531Z,18.60
2019-03-19T02:51:48.742Z,18.60
2019-03-19T02:54:21.283Z,18.60
2019-03-19T02:56:51.894Z,18.60
2019-03-19T02:59:24.491Z,18.60
2019-03-19T03:01:56.335Z,18.60
2019-03-19T03:04:28.937Z,18.50
2019-03-19T03:07:00.812Z,18.50
2019-03-19T03:09:33.318Z,18.60
2019-03-19T03:12:03.504Z,18.60
2019-03-19T03:14:35.961Z,18.60
2019-03-19T03:17:06.570Z,18.50
2019-03-19T03:19:39.176Z,18.50
2019-03-19T03:22:11.342Z,18.50
2019-03-19T03:24:43.907Z,18.50
2019-03-19T03:27:14.219Z,18.50
2019-03-19T03:29:46.813Z,18.50
2019-03-19T03:32:18.979Z,18.50
2019-03-19T03:34:49.650Z,18.50
2019-03-19T03:37:21.631Z,18.50
2019-03-19T03:39:54.117Z,18.50
2019-03-19T03:42:24.470Z,18.50
2019-03-19T03:44:57.082Z,18.50
2019-03-19T03:47:28.897Z,18.50
2019-03-19T03:50:01.199Z,18.50
2019-03-19T03:52:31.801Z,18.50
2019-03-19T03:55:04.705Z,18.50
2019-03-19T03:57:35.011Z,18.50
2019-03-19T04:00:10.363Z,18.50
2019-03-19T04:02:40.678Z,18.50
2019-03-19T04:05:13.128Z,18.50
2019-03-19T04:07:45.415Z,18.50
2019-03-19T04:10:16.143Z,18.50
2019-03-19T04:12:48.319Z,18.50
2019-03-19T04:15:20.631Z,18.50
2019-03-19T04:17:52.469Z,18.50
2019-03-19T04:20:24.983Z,18.50
2019-03-19T04:22:57.262Z,18.50
2019-03-19T04:25:29.802Z,18.50
2019-03-19T04:28:00.118Z,18.50
2019-03-19T04:30:32.694Z,18.50
2019-03-19T04:33:04.527Z,18.50
2019-03-19T04:35:37.134Z,18.50
2019-03-19T04:38:07.378Z,18.40
2019-03-19T04:40:39.662Z,18.40
2019-03-19T04:43:10.039Z,18.50
2019-03-19T04:45:42.582Z,18.40
2019-03-19T04:48:14.461Z,18.50
2019-03-19T04:50:46.982Z,18.50
2019-03-19T04:53:17.986Z,18.50
2019-03-19T04:55:50.280Z,18.50
2019-03-19T04:58:20.529Z,18.40
2019-03-19T05:00:53.173Z,18.40
2019-03-19T05:03:25.019Z,18.40
2019-03-19T05:05:59.530Z,18.50
2019-03-19T05:08:29.453Z,18.50
2019-03-19T05:11:01.745Z,18.40
2019-03-19T05:13:32.096Z,18.40
2019-03-19T05:16:04.645Z,18.40
2019-03-19T05:18:36.543Z,18.40
2019-03-19T05:21:09.091Z,18.40
2019-03-19T05:23:39.378Z,18.40
2019-03-19T05:26:10.142Z,18.40
2019-03-19T05:28:40.429Z,18.40
2019-03-19T05:31:12.762Z,18.40
2019-03-19T05:33:43.683Z,18.40
2019-03-19T05:36:23.559Z,18.40
2019-03-19T05:38:53.927Z,18.40
2019-03-19T05:41:24.691Z,18.40
2019-03-19T05:43:56.218Z,18.40
2019-03-19T05:46:27.278Z,18.40
2019-03-19T05:48:57.890Z,18.40
2019-03-19T05:51:30.182Z,18.50
2019-03-19T05:54:00.485Z,18.40
2019-03-19T05:56:33.390Z,18.50
2019-03-19T05:59:04.918Z,18.50
2019-03-19T06:01:37.546Z,18.40
2019-03-19T06:04:09.363Z,18.40
2019-03-19T06:06:41.604Z,18.40
2019-03-19T06:09:13.497Z,18.50
2019-03-19T06:11:47.699Z,18.50
2019-03-19T06:14:19.458Z,18.50
2019-03-19T06:16:50.226Z,18.50
2019-03-19T06:19:20.834Z,18.50
2019-03-19T06:21:51.893Z,18.50
2019-03-19T06:24:22.204Z,18.50
2019-03-19T06:26:53.253Z,18.50
2019-03-19T06:29:25.098Z,18.60
2019-03-19T06:31:57.404Z,18.60
2019-03-19T06:34:29.434Z,18.60
2019-03-19T06:37:00.287Z,18.60
2019-03-19T06:39:30.602Z,18.60
2019-03-19T06:42:02.885Z,18.60
2019-03-19T06:44:33.106Z,18.60
2019-03-19T06:47:05.786Z,18.60
2019-03-19T06:49:37.933Z,18.70
2019-03-19T06:52:10.526Z,18.70
2019-03-19T06:54:42.372Z,18.70
2019-03-19T06:57:14.972Z,18.70
2019-03-19T06:59:45.187Z,18.70
2019-03-19T07:02:16.022Z,18.70
2019-03-19T07:04:46.634Z,18.70
2019-03-19T07:07:19.238Z,18.70
2019-03-19T07:09:49.533Z,18.70
2019-03-19T07:12:22.138Z,18.70
2019-03-19T07:14:52.442Z,18.70
2019-03-19T07:17:23.520Z,18.80
2019-03-19T07:19:53.806Z,18.80
2019-03-19T07:22:26.355Z,18.80
2019-03-19T07:24:58.201Z,18.80
2019-03-19T07:27:30.549Z,18.80
2019-03-19T07:30:02.470Z,18.90
2019-03-19T07:32:34.669Z,18.90
2019-03-19T07:35:04.962Z,18.90
2019-03-19T07:37:36.063Z,18.90
2019-03-19T07:40:08.837Z,18.90
2019-03-19T07:42:41.085Z,18.90
2019-03-19T07:45:14.457Z,19.00
2019-03-19T07:47:47.420Z,19.00
2019-03-19T07:50:18.122Z,19.00
2019-03-19T07:52:50.574Z,19.00
2019-03-19T07:55:20.876Z,19.10
2019-03-19T07:57:51.635Z,19.10
2019-03-19T08:00:22.554Z,19.00
2019-03-19T08:02:53.914Z,19.10
2019-03-19T08:05:33.188Z,19.10
2019-03-19T08:07:59.919Z,19.10
2019-03-19T08:10:31.789Z,19.10
2019-03-19T08:13:02.795Z,19.10
2019-03-19T08:15:33.097Z,19.20
2019-03-19T08:18:05.695Z,19.10
2019-03-19T08:20:37.715Z,19.20
2019-03-19T08:23:09.156Z,19.20
2019-03-19T08:25:41.167Z,19.20
2019-03-19T08:28:13.605Z,19.20
2019-03-19T08:30:44.257Z,19.20
2019-03-19T08:33:15.013Z,19.20
2019-03-19T08:35:45.328Z,19.30
2019-03-19T08:38:16.382Z,19.30
2019-03-19T08:40:46.681Z,19.30
2019-03-19T08:43:17.760Z,19.40
2019-03-19T08:45:48.357Z,19.40
2019-03-19T08:48:20.665Z,19.40
2019-03-19T08:50:52.497Z,19.40
2019-03-19T08:53:23.641Z,19.50
2019-03-19T08:55:53.973Z,19.50
2019-03-19T08:58:26.615Z,19.50
2019-03-19T09:00:58.675Z,19.60
2019-03-19T09:03:31.198Z,19.70
2019-03-19T09:06:01.502Z,19.80
2019-03-19T09:08:32.850Z,19.90
2019-03-19T09:11:04.705Z,19.90
2019-03-19T09:13:37.270Z,20.10
2019-03-19T09:16:09.137Z,20.10
2019-03-19T09:18:40.207Z,20.20
2019-03-19T09:21:12.087Z,20.20
2019-03-19T09:23:44.604Z,20.30
2019-03-19T09:26:17.098Z,20.40
2019-03-19T09:28:49.389Z,20.50
2019-03-19T09:31:19.687Z,20.50
2019-03-19T09:33:52.602Z,20.60
2019-03-19T09:36:22.983Z,20.70
2019-03-19T09:38:55.582Z,20.70
2019-03-19T09:41:25.806Z,20.80
2019-03-19T09:43:58.717Z,20.90
2019-03-19T09:46:29.018Z,20.90
2019-03-19T09:49:01.616Z,21.00
2019-03-19T09:51:33.218Z,21.00
2019-03-19T09:54:06.053Z,20.90
2019-03-19T09:56:36.357Z,20.80
2019-03-19T09:59:08.643Z,20.80
2019-03-19T10:01:40.483Z,20.70
2019-03-19T10:04:12.769Z,20.60
2019-03-19T10:06:44.704Z,20.60
2019-03-19T10:09:16.903Z,20.50
2019-03-19T10:11:48.751Z,20.50
2019-03-19T10:14:21.348Z,20.50
2019-03-19T10:16:52.200Z,20.40
2019-03-19T10:19:23.019Z,20.40
2019-03-19T10:21:53.322Z,20.40
2019-03-19T10:24:25.923Z,20.30
2019-03-19T10:26:56.221Z,20.30
2019-03-19T10:29:37.771Z,20.30
2019-03-19T10:32:02.239Z,20.30
2019-03-19T10:34:32.958Z,20.20
2019-03-19T10:37:03.258Z,20.20
2019-03-19T10:39:35.550Z,20.20
2019-03-19T10:42:05.726Z,20.10
2019-03-19T10:44:38.146Z,20.10
2019-03-19T10:47:08.447Z,20.10
2019-03-19T10:49:40.426Z,20.10
2019-03-19T10:52:12.575Z,20.10
2019-03-19T10:54:45.479Z,20.10
2019-03-19T10:57:17.398Z,20.10
2019-03-19T10:59:53.208Z,20.10
2019-03-19T11:02:24.919Z,20.10
2019-03-19T11:04:57.428Z,20.10
2019-03-19T11:07:27.730Z,20.10
2019-03-19T11:10:00.062Z,20.10
2019-03-19T11:12:31.249Z,20.10
2019-03-19T11:15:03.439Z,20.10
2019-03-19T11:17:35.378Z,20.00
2019-03-19T11:20:08.889Z,20.00
2019-03-19T11:22:40.736Z,20.00
2019-03-19T11:25:12.622Z,20.00
2019-03-19T11:27:43.714Z,20.00
2019-03-19T11:30:23.304Z,19.90
2019-03-19T11:32:53.605Z,20.00
2019-03-19T11:35:26.814Z,19.90
2019-03-19T11:37:58.658Z,19.90
2019-03-19T11:40:31.260Z,19.90
2019-03-19T11:43:01.567Z,19.90
2019-03-19T11:45:33.855Z,19.90
2019-03-19T11:48:04.394Z,19.90
2019-03-19T11:50:36.747Z,19.90
2019-03-19T11:53:08.598Z,19.90
2019-03-19T11:55:40.885Z,19.90
2019-03-19T11:58:11.125Z,19.90
2019-03-19T12:00:46.109Z,19.90
2019-03-19T12:03:18.159Z,19.90
2019-03-19T12:05:50.638Z,19.90
2019-03-19T12:08:22.521Z,19.80
2019-03-19T12:10:55.135Z,19.80
2019-03-19T12:13:25.430Z,19.80
2019-03-19T12:15:58.636Z,19.80
2019-03-19T12:18:28.859Z,19.80
2019-03-19T12:21:01.224Z,19.80
2019-03-19T12:23:33.001Z,19.80
2019-03-19T12:26:04.746Z,19.80
2019-03-19T12:28:39.927Z,19.80
2019-03-19T12:31:10.907Z,19.80
2019-03-19T12:33:42.865Z,19.90
2019-03-19T12:36:15.183Z,19.90
2019-03-19T12:38:45.758Z,19.90
2019-03-19T12:41:18.364Z,19.90
2019-03-19T12:43:48.973Z,19.90
2019-03-19T12:46:20.071Z,19.90
2019-03-19T12:48:54.126Z,19.90
2019-03-19T12:51:26.010Z,19.90
2019-03-19T12:53:56.311Z,19.90
2019-03-19T12:56:28.582Z,19.90
2019-03-19T12:58:58.904Z,19.90
2019-03-19T13:01:31.246Z,19.90
2019-03-19T13:04:02.429Z,19.90
2019-03-19T13:06:34.718Z,20.00
2019-03-19T13:09:07.218Z,20.00
2019-03-19T13:11:39.775Z,20.00
2019-03-19T13:14:11.586Z,19.90
2019-03-19T13:16:43.923Z,19.90
2019-03-19T13:19:16.046Z,19.90
2019-03-19T13:21:48.598Z,19.90
2019-03-19T13:24:20.490Z,19.90
2019-03-19T13:26:51.551Z,19.90
2019-03-19T13:29:21.782Z,19.90
2019-03-19T13:31:54.441Z,19.90
2019-03-19T13:34:25.861Z,19.90
2019-03-19T13:36:58.638Z,19.90
2019-03-19T13:39:30.110Z,19.90
2019-03-19T13:42:02.709Z,19.90
2019-03-19T13:44:32.932Z,19.80
2019-03-19T13:47:05.498Z,19.80
2019-03-19T13:49:37.459Z,19.90
2019-03-19T13:52:10.043Z,19.80
2019-03-19T13:54:42.194Z,19.80
2019-03-19T13:57:13.255Z,19.90
2019-03-19T13:59:43.558Z,19.80
2019-03-19T14:02:15.853Z,19.80
2019-03-19T14:04:46.161Z,19.80
2019-03-19T14:07:18.763Z,19.80
2019-03-19T14:09:50.901Z,19.80
2019-03-19T14:12:22.633Z,19.80
2019-03-19T14:14:54.518Z,19.80
2019-03-19T14:17:27.014Z,19.80
2019-03-19T14:19:57.318Z,19.90
2019-03-19T14:22:29.622Z,19.80
2019-03-19T14:25:01.158Z,19.90
2019-03-19T14:27:34.049Z,19.90
2019-03-19T14:30:05.191Z,19.90
2019-03-19T14:32:36.367Z,19.90
2019-03-19T14:35:07.319Z,19.90
2019-03-19T14:37:39.556Z,19.90
2019-03-19T14:40:13.185Z,19.90
2019-03-19T14:42:45.936Z,19.90
2019-03-19T14:45:16.491Z,19.80
2019-03-19T14:47:49.180Z,19.90
2019-03-19T14:50:21.138Z,19.80
2019-03-19T14:52:53.511Z,19.80
2019-03-19T14:55:25.403Z,19.80
2019-03-19T14:57:57.911Z,19.80
2019-03-19T15:00:28.428Z,19.80
2019-03-19T15:03:00.947Z,19.80
2019-03-19T15:05:31.513Z,19.80
2019-03-19T15:08:03.411Z,19.80
2019-03-19T15:10:34.102Z,19.80
2019-03-19T15:13:05.399Z,19.80
2019-03-19T15:15:35.825Z,19.80
2019-03-19T15:18:07.057Z,19.80
2019-03-19T15:20:37.447Z,19.80
2019-03-19T15:23:08.757Z,19.80
2019-03-19T15:25:39.117Z,19.70
2019-03-19T15:28:13.176Z,19.70
2019-03-19T15:30:43.488Z,19.70
2019-03-19T15:33:16.075Z,19.70
2019-03-19T15:35:46.388Z,19.70
2019-03-19T15:38:20.204Z,19.70
2019-03-19T15:40:50.506Z,19.70
2019-03-19T15:43:23.137Z,19.60
2019-03-19T15:45:53.564Z,19.70
2019-03-19T15:48:24.467Z,19.70
2019-03-19T15:50:54.874Z,19.60
2019-03-19T15:53:25.655Z,19.70
2019-03-19T15:55:56.142Z,19.70
2019-03-19T15:58:29.099Z,19.70
2019-03-19T16:00:59.572Z,19.60
2019-03-19T16:03:36.307Z,19.60
2019-03-19T16:06:06.942Z,19.60
2019-03-19T16:08:39.523Z,19.60
2019-03-19T16:11:11.688Z,19.60
2019-03-19T16:13:43.059Z,19.60
2019-03-19T16:16:17.224Z,19.60
2019-03-19T16:18:47.728Z,19.60
2019-03-19T16:21:18.643Z,19.60
2019-03-19T16:23:50.311Z,19.60
2019-03-19T16:26:20.999Z,19.50
2019-03-19T16:28:53.832Z,19.50
2019-03-19T16:31:24.574Z,19.50
2019-03-19T16:33:57.046Z,19.50
2019-03-19T16:36:29.085Z,19.50
2019-03-19T16:39:01.787Z,19.50
2019-03-19T16:41:32.715Z,19.50
2019-03-19T16:44:05.910Z,19.50
2019-03-19T16:46:36.635Z,19.50
2019-03-19T16:49:07.588Z,19.50
2019-03-19T16:51:37.979Z,19.50
2019-03-19T16:54:10.477Z,19.50
2019-03-19T16:56:41.605Z,19.50
2019-03-19T16:59:12.773Z,19.50
2019-03-19T17:01:44.627Z,19.50
2019-03-19T17:04:16.926Z,19.50
2019-03-19T17:06:47.235Z,19.50
2019-03-19T17:09:19.801Z,19.50
2019-03-19T17:11:51.682Z,19.50
2019-03-19T17:14:24.324Z,19.50
2019-03-19T17:16:56.408Z,19.40
2019-03-19T17:19:28.068Z,19.40
2019-03-19T17:21:58.396Z,19.40
2019-03-19T17:24:29.433Z,19.40
2019-03-19T17:27:02.726Z,19.40
2019-03-19T17:29:35.607Z,19.40
2019-03-19T17:32:12.727Z,19.40
2019-03-19T17:34:40.729Z,19.30
2019-03-19T17:37:13.094Z,19.30
2019-03-19T17:39:47.686Z,19.40
2019-03-19T17:42:20.343Z,19.30
2019-03-19T17:44:52.405Z,19.30
2019-03-19T17:47:25.393Z,19.30
2019-03-19T17:49:56.549Z,19.30
2019-03-19T17:52:29.227Z,19.30
2019-03-19T17:55:00.670Z,19.30
2019-03-19T17:57:33.342Z,19.30
2019-03-19T18:00:05.055Z,19.30
2019-03-19T18:02:36.515Z,19.30
2019-03-19T18:05:08.655Z,19.30
2019-03-19T18:07:39.822Z,19.30
2019-03-19T18:10:12.621Z,19.20
2019-03-19T18:12:43.603Z,19.20
2019-03-19T18:15:14.413Z,19.20
2019-03-19T18:17:45.033Z,19.20
2019-03-19T18:20:18.581Z,19.20
2019-03-19T18:22:49.199Z,19.20
2019-03-19T18:25:21.801Z,19.20
2019-03-19T18:27:54.291Z,19.20
2019-03-19T18:30:26.502Z,19.20
2019-03-19T18:32:57.213Z,19.20
2019-03-19T18:35:29.406Z,19.20
2019-03-19T18:38:02.706Z,19.20
2019-03-19T18:40:33.853Z,19.20
2019-03-19T18:43:06.558Z,19.20
2019-03-19T18:45:39.181Z,19.10
2019-03-19T18:48:11.573Z,19.10
2019-03-19T18:50:44.257Z,19.10
2019-03-19T18:53:16.937Z,19.10
2019-03-19T18:55:49.651Z,19.10
2019-03-19T18:58:20.774Z,19.10
2019-03-19T19:00:53.441Z,19.10
2019-03-19T19:03:26.778Z,19.10
2019-03-19T19:05:59.732Z,19.10
2019-03-19T19:08:32.541Z,19.10
2019-03-19T19:11:04.634Z,19.10
2019-03-19T19:13:37.483Z,19.10
2019-03-19T19:16:07.841Z,19.10
2019-03-19T19:18:40.683Z,19.00
2019-03-19T19:21:12.779Z,19.10
2019-03-19T19:23:45.098Z,19.10
2019-03-19T19:26:15.480Z,19.00
2019-03-19T19:28:46.395Z,19.00
2019-03-19T19:31:18.386Z,19.00
2019-03-19T19:33:49.671Z,19.00
2019-03-19T19:36:19.977Z,19.00
2019-03-19T19:38:52.702Z,19.00
2019-03-19T19:41:25.294Z,19.00
2019-03-19T19:43:57.622Z,19.00
2019-03-19T19:46:28.248Z,19.00
2019-03-19T19:49:01.144Z,19.00
2019-03-19T19:51:31.746Z,19.00
2019-03-19T19:54:02.725Z,19.00
2019-03-19T19:56:33.118Z,19.00
2019-03-19T19:59:04.492Z,19.00
2019-03-19T20:01:34.726Z,18.90
2019-03-19T20:04:06.161Z,18.90
2019-03-19T20:06:36.549Z,18.90
2019-03-19T20:09:09.255Z,18.90
2019-03-19T20:11:41.784Z,18.90
2019-03-19T20:14:12.915Z,18.90
2019-03-19T20:16:46.130Z,18.90
2019-03-19T20:19:19.166Z,18.90
2019-03-19T20:21:49.699Z,18.90
2019-03-19T20:24:22.154Z,18.90
2019-03-19T20:26:52.786Z,18.90
2019-03-19T20:29:25.309Z,18.90
2019-03-19T20:31:57.505Z,18.90
2019-03-19T20:34:28.506Z,18.90
2019-03-19T20:36:59.554Z,18.90
2019-03-19T20:39:32.946Z,18.90
2019-03-19T20:42:03.253Z,18.90
2019-03-19T20:44:36.135Z,18.90
2019-03-19T20:47:06.522Z,18.90
2019-03-19T20:49:47.202Z,18.90
2019-03-19T20:52:11.340Z,18.90
2019-03-19T20:54:44.098Z,18.80
2019-03-19T20:57:15.937Z,18.80
2019-03-19T20:59:47.274Z,18.80
2019-03-19T21:02:19.228Z,18.80
2019-03-19T21:04:52.091Z,18.80
2019-03-19T21:07:22.379Z,18.80
2019-03-19T21:09:53.421Z,18.80
2019-03-19T21:12:24.052Z,18.80
2019-03-19T21:14:55.542Z,18.80
2019-03-19T21:17:26.511Z,18.80
2019-03-19T21:19:59.551Z,18.80
2019-03-19T21:22:31.747Z,18.80
2019-03-19T21:25:03.105Z,18.80
2019-03-19T21:27:33.611Z,18.80
2019-03-19T21:30:05.894Z,18.80
2019-03-19T21:32:36.999Z,18.80
2019-03-19T21:35:08.588Z,18.80
2019-03-19T21:37:40.640Z,18.80
2019-03-19T21:40:13.535Z,18.80
2019-03-19T21:42:44.342Z,18.70
2019-03-19T21:45:17.101Z,18.70
2019-03-19T21:47:47.709Z,18.70
2019-03-19T21:50:20.645Z,18.70
2019-03-19T21:52:53.166Z,18.70
2019-03-19T21:55:24.479Z,18.70
2019-03-19T21:57:56.823Z,18.70
2019-03-19T22:00:29.886Z,18.70
2019-03-19T22:03:02.035Z,18.70
2019-03-19T22:05:32.997Z,18.70
2019-03-19T22:08:04.852Z,18.70
2019-03-19T22:10:37.443Z,18.70
2019-03-19T22:13:08.474Z,18.70
2019-03-19T22:15:41.610Z,18.70
2019-03-19T22:18:14.238Z,18.70
2019-03-19T22:20:45.236Z,18.70
2019-03-19T22:23:16.566Z,18.70
2019-03-19T22:25:49.762Z,18.60
2019-03-19T22:28:22.333Z,18.60
2019-03-19T22:30:54.432Z,18.60
2019-03-19T22:33:25.413Z,18.60
2019-03-19T22:35:58.408Z,18.60
2019-03-19T22:38:30.679Z,18.60
2019-03-19T22:41:03.451Z,18.60
2019-03-19T22:43:33.912Z,18.60
2019-03-19T22:46:06.361Z,18.60
2019-03-19T22:48:38.321Z,18.60
2019-03-19T22:51:11.408Z,18.60
2019-03-19T22:53:43.820Z,18.60
2019-03-19T22:56:17.070Z,18.60
2019-03-19T22:58:49.767Z,18.60
2019-03-19T23:01:22.757Z,18.60
2019-03-19T23:03:55.761Z,18.60
2019-03-19T23:06:28.437Z,18.60
2019-03-19T23:09:01.392Z,18.50
2019-03-19T23:11:34.380Z,18.60
2019-03-19T23:14:05.828Z,18.60
2019-03-19T23:16:38.821Z,18.50
2019-03-19T23:19:11.834Z,18.50
2019-03-19T23:21:43.374Z,18.50
2019-03-19T23:24:15.523Z,18.50
2019-03-19T23:26:47.690Z,18.50
2019-03-19T23:29:18.031Z,18.50
2019-03-19T23:31:50.594Z,18.50
2019-03-19T23:34:21.469Z,18.50
2019-03-19T23:36:54.413Z,18.50
2019-03-19T23:39:26.786Z,18.50
2019-03-19T23:41:58.670Z,18.50
2019-03-19T23:44:30.614Z,18.50
2019-03-19T23:47:01.301Z,18.50
2019-03-19T23:49:33.549Z,18.50
2019-03-19T23:52:05.353Z,18.50
2019-03-19T23:54:36.417Z,18.50
2019-03-19T23:57:06.766Z,18.40
2019-03-19T23:59:38.878Z,18.40
